• Join FlightAware (Why Join?)
  • Login
  • US Flag 
10:38AM EDT


 

Airport Tracker/Info


-or-


 

Live Flight TrackerFlight Track Log ✈ N700QA ✈ 10-Jul-2013 ✈ KLAS - KENV

Flight Track Log - Related Links

Times and Time Zones

All times are in EDT time to prevent confusion due to time zone crossing. See the N700QA flight status page for this flight to view local times or setup timezone preferences in your user account.

Time Position Orientation Groundspeed Altitude Reporting Facility
EDT Latitude Longitude Course Direction KTS MPH feet Rate Location/Type
11:05AM 36.0681 -115.1708 203° Southwest 157 181 3,100  Level Los Angeles Center
11:05AM 36.0253 -115.1928 203° Southwest 182 209 4,900 1,860 Climbing Los Angeles Center
11:06AM 35.9886 -115.2422 228° Southwest 211 243 6,700 1,200 Climbing Los Angeles Center
11:08AM 35.9344 -115.2811 210° Southwest 261 300 7,400 1,620 Climbing Los Angeles Center
11:09AM 35.8617 -115.2653 170° South 266 306 10,000 2,520 Climbing Los Angeles Center
11:10AM 35.7978 -115.2078 144° Southeast 272 313 12,900 2,220 Climbing Los Angeles Center
11:11AM 35.8150 -115.1117 78° East 285 328 15,000 2,040 Climbing Los Angeles Center
11:12AM 35.8608 -115.0239 57° Northeast 299 344 17,200 1,920 Climbing Los Angeles Center
11:13AM 35.9039 -114.9300 60° Northeast 308 354 19,000 1,860 Climbing Los Angeles Center
11:14AM 35.9539 -114.8131 62° Northeast 320 368 21,100 1,740 Climbing Los Angeles Center
11:15AM 35.9978 -114.7117 62° Northeast 331 381 22,600 1,200 Climbing Los Angeles Center
11:16AM 36.0419 -114.6064 63° Northeast 344 396 23,700 1,140 Climbing Los Angeles Center
11:17AM 36.0872 -114.4992 62° Northeast 351 404 25,000 1,200 Climbing Los Angeles Center
11:18AM 36.1342 -114.3914 62° Northeast 356 410 26,200 1,020 Climbing Los Angeles Center
11:19AM 36.2222 -114.3278 30° Northeast 365 420 27,200 1,020 Climbing Los Angeles Center
11:20AM 36.3386 -114.2678 23° Northeast 375 432 28,300 960 Climbing Los Angeles Center
11:21AM 36.4378 -114.2131 24° Northeast 387 445 29,200 660 Climbing Los Angeles Center
11:22AM 36.5336 -114.1592 24° Northeast 391 450 29,900 660 Climbing Los Angeles Center
11:23AM 36.6564 -114.0919 24° Northeast 400 460 30,800 480 Climbing Los Angeles Center
11:24AM 36.7611 -114.0347 24° Northeast 408 470 31,000 120 Climbing Los Angeles Center
11:25AM 36.8722 -113.9706 25° Northeast 422 486 31,100  Climbing Los Angeles Center
11:26AM 37.0047 -113.8975 24° Northeast 432 497 31,100  Level Los Angeles Center
11:27AM 37.1125 -113.8375 24° Northeast 435 501 31,100  Level Los Angeles Center
11:28AM 37.2242 -113.7747 24° Northeast 438 504 31,100  Level Los Angeles Center
11:29AM 37.3358 -113.7108 24° Northeast 440 506 31,100  Level Los Angeles Center
11:31AM 37.4486 -113.6481 24° Northeast 441 507 31,100  Level Los Angeles Center
11:32AM 37.5608 -113.5839 24° Northeast 441 507 31,100 300 Level Los Angeles Center
11:32AM 37.6733 -113.5211 24° Northeast 444 511 31,700 420 Climbing Salt Lake Center
11:34AM 37.7808 -113.4581 25° Northeast 431 496 32,000 120 Climbing Salt Lake Center
11:35AM 37.8864 -113.4914 346° North 414 476 32,000  Level Salt Lake Center
11:36AM 37.9753 -113.5775 323° Northwest 405 466 32,000  Level Salt Lake Center
11:37AM 38.0847 -113.6797 324° Northwest 405 466 32,100  Climbing Salt Lake Center
11:38AM 38.1764 -113.7669 323° Northwest 408 470 32,100  Level Salt Lake Center
11:39AM 38.2711 -113.8522 325° Northwest 413 475 32,100  Level Salt Lake Center
11:40AM 38.3625 -113.9406 323° Northwest 412 474 32,100  Level Salt Lake Center
11:41AM 38.4539 -114.0283 323° Northwest 412 474 32,100  Level Salt Lake Center
11:42AM 38.5464 -114.1150 324° Northwest 411 473 32,100  Level Salt Lake Center
11:43AM 38.6561 -114.2206 323° Northwest 412 474 32,100  Level Salt Lake Center
11:44AM 38.7478 -114.3106 323° Northwest 414 476 32,100  Level Salt Lake Center
11:45AM 38.8389 -114.4003 323° Northwest 414 476 32,100  Level Salt Lake Center
11:46AM 38.9303 -114.4872 324° Northwest 410 472 32,100  Level Salt Lake Center
11:47AM 39.0211 -114.5767 323° Northwest 411 473 32,100  Level Salt Lake Center
11:48AM 39.1114 -114.6658 323° Northwest 409 471 32,100 -600 Level Salt Lake Center
11:49AM 39.2114 -114.7739 320° Northwest 416 479 30,900 -1,020 Descending Salt Lake Center
11:50AM 39.3058 -114.8489 328° Northwest 418 481 30,000 -900 Descending Salt Lake Center
11:51AM 39.4444 -114.8172 10° North 440 506 29,100 -780 Descending Salt Lake Center
11:52AM 39.5622 -114.7881 11° North 448 516 28,400 -900 Descending Salt Lake Center
11:53AM 39.6939 -114.7544 11° North 436 502 27,300 -960 Descending Salt Lake Center
11:54AM 39.8050 -114.7264 11° North 432 497 26,500 -600 Descending Salt Lake Center
11:55AM 39.9458 -114.6925 10° North 429 494 26,100 -300 Descending Salt Lake Center
11:56AM 40.0619 -114.6647 10° North 425 489 26,000 -60 Descending Salt Lake Center
11:57AM 40.1694 -114.6358 12° North 405 466 26,000  Level Salt Lake Center
11:58AM 40.2792 -114.6089 11° North 401 461 26,000 -300 Level Salt Lake Center
11:59AM 40.3864 -114.5808 11° North 395 455 25,400 -1,380 Descending Salt Lake Center
12:00PM 40.4739 -114.4981 36° Northeast 395 455 23,200 -2,340 Descending Salt Lake Center
12:01PM 40.5275 -114.3614 63° Northeast 363 418 20,600 -2,760 Descending Salt Lake Center
12:02PM 40.5708 -114.2547 62° Northeast 342 394 17,600 -3,600 Descending Salt Lake Center
12:04PM 40.6275 -114.1789 45° Northeast 313 360 13,200 -3,540 Descending Salt Lake Center
12:05PM 40.7122 -114.1678 North 304 350 10,400 6,180 Descending Salt Lake Center
12:06PM 40.7069 -114.1014 96° East 322 371 26,000 -2,040 Climbing Salt Lake Center
12:07PM 40.6717 -114.0511 133° Southeast 272 313 6,200 -19,200 Descending Salt Lake Center